Home > Products > Valid Products > MTR

000
SAZS31 NSTU 310653
MTRPPG
METAR NSTU 310650Z 13016G20KT 10SM -SHRA SCT015 BKN020 OVC080 25/23
A2987 RMK SLP115 T02500233=




000
SAZS31 NSTU 310556
MTRPPG
METAR NSTU 310550Z 14014G20KT 10SM -SHRA SCT016 BKN028 OVC080 24/23
A2986 RMK SLP112 60001 8/82/ T02440229 10268 20244 53019=




000
SAZS31 NSTU 310556
MTRPPG
METAR NSTU 310550Z 14014G20KT 10SM -SHRA SCT016 BKN028 OVC080 24/23
A2986 RMK SLP112 60001 8/82/ T02440229 10268 20244 53019=




000
SAZS31 NSTU 310454
MTRPPG
METAR NSTU 310451Z 15019KT 11SM -SHRA SCT016 BKN028 OVC080 26/23
A2984 RMK SLP103 T02550229=




000
SAZS31 NSTU 310300
MTRPPG
METAR NSTU 310255Z 13016KT 11SM SCT018 BKN030 OVC080 27/23 A2980 RMK
SLP093 8/82/ T02670228 56012=




000
SAZS31 NSTU 310152
MTRPPG
METAR NSTU 310150Z 13015KT 11SM SCT019 BKN030 OVC080 26/23 A2980 RMK
SLP093 T02630231=




000
SAZS31 NSTU 310058
MTRPPG
METAR NSTU 310050Z 11011KT 10SM SCT019 BKN030 OVC080 27/23 A2982 RMK
SHRAE15 SLP100 T02680231=




000
SAZS31 NSTU 302358
MTRPPG
METAR NSTU 302355Z 10014KT 10SM -SHRA SCT018TCU BKN030 OVC080 26/23
A2984 RMK SHRAB30 TCU W-N-NE SLP105 60000 8/81/ T02590231 10273
20258 57015=




000
SAZS31 NSTU 302358
MTRPPG
METAR NSTU 302355Z 10014KT 10SM -SHRA SCT018TCU BKN030 OVC080 26/23
A2984 RMK SHRAB30 TCU W-N-NE SLP105 60000 8/81/ T02590231 10273
20258 57015=




000
SAZS31 NSTU 302252
MTRPPG
METAR NSTU 302250Z 11015KT 11SM SCT020 BKN040 OVC080 27/23 A2986 RMK
SLP112 T02720229=




000
SAZS31 NSTU 302153
MTRPPG
METAR NSTU 302151Z 12015KT 11SM SCT022 BKN040 BKN080 27/23 A2987 RMK
SLP117 T02730229=




000
SAZS31 NSTU 302153
MTRPPG
METAR NSTU 302151Z 12015KT 11SM SCT022 BKN040 BKN080 27/23 A2987 RMK
SLP117 T02730229=




000
SAZS31 NSTU 302110
MTRPPG
METAR NSTU 302051Z 11017KT 11SM SCT018 BKN040 OVC080 27/22 A2988 RMK
SLP120 60000 8/41/ T02690221 50010=




000
SAZS31 NSTU 302054
MTRPPG
METAR NSTU 302051Z 11017KT 11SM SCT018 BKN040 OVC080 27/22 A2988 RMK
SLP120 60000 8/41/ T02690221 50010=




000
SAZS31 NSTU 301954
MTRPPG
METAR NSTU 301950Z 11018KT 11SM -SHRA SCT018 BKN040 OVC080 26/22
A2989 RMK SHRAB45 SLP122 T02610222=




000
SAZS31 NSTU 301954
MTRPPG
METAR NSTU 301950Z 11018KT 11SM -SHRA SCT018 BKN040 OVC080 26/22
A2989 RMK SHRAB45 SLP122 T02610222=




000
SAZS31 NSTU 301855
MTRPPG
METAR NSTU 301853Z 13015KT 11SM SCT022 BKN040 OVC090 26/21 A2987 RMK
SLP115 T02590212=




000
SAZS31 NSTU 301753
MTRPPG
METAR NSTU 301750Z 13014KT 12SM SCT022 BKN040 OVC090 26/21 A2986 RMK
SLP110 8/87/ T02580209 10258 20249 52005=




000
SAZS31 NSTU 301654
MTRPPG
METAR NSTU 301652Z 14016KT 10SM SCT022 BKN040 OVC090 26/21 A2984 RMK
SLP105 T02560211=




000
SAZS31 NSTU 301619
MTRPPG
METAR NSTU 301553Z 13013KT 10SM SCT022 BKN040 OVC090 25/21 A2984 RMK
SLP105 T02490214=




000
SAZS31 NSTU 301619
MTRPPG
METAR NSTU 301553Z 13013KT 10SM SCT022 BKN040 OVC090 25/21 A2984 RMK
SLP105 T02490214=




000
SAZS31 NSTU 301508
MTRPPG
METAR NSTU 301457Z 13016KT 10SM SCT022 BKN040 OVC090 26/21 A2984 RMK
SLP105 8/87/ T02570212 58007=




000
SAZS31 NSTU 301351
MTRPPG
METAR NSTU 301350Z 13013KT 10SM SCT022 BKN040 OVC090 26/21 A2984
RMK SLP105 T02570212=




000
SAZS31 NSTU 301351
MTRPPG
METAR NSTU 301350Z 13013KT 10SM SCT022 BKN040 OVC090 26/21 A2984
RMK SLP105 T02570212=




000
SAZS31 NSTU 301256
MTRPPG
METAR NSTU 301254Z 13014KT 10SM SCT022 BKN040 OVC090 26/21 A2984 RMK
SLP107 T02570213=




000
SAZS31 NSTU 301256
MTRPPG
METAR NSTU 301254Z 13014KT 10SM SCT022 BKN040 OVC090 26/21 A2984 RMK
SLP107 T02570213=




000
SAZS31 NSTU 301153
MTRPPG
METAR NSTU 301150Z 12016KT 10SM SCT022 BKN040 OVC090 26/22 A2986 RMK
SLP112 8/87/ T02580215 10261 20258 55000=




000
SAZS31 NSTU 301153
MTRPPG
METAR NSTU 301150Z 12016KT 10SM SCT022 BKN040 OVC090 26/22 A2986 RMK
SLP112 8/87/ T02580215 10261 20258 55000=




000
SAZS31 NSTU 301152
MTRPPG
METAR NSTU 301051Z 11015KT 10SM SCT023 BKN110 26/22 A2985 RMK SLP110
T02580215 402820255=




000
SAZS31 NSTU 301152
MTRPPG
METAR NSTU 301051Z 11015KT 10SM SCT023 BKN110 26/22 A2985 RMK SLP110
T02580215 402820255=




000
SAZS31 NSTU 301052
MTRPPG
METAR NSTU 301051Z 11015KT 10SM SCT023 BKN110 26/22 A2985 RMK SLP110
T02580215 402820255=




000
SAZS31 NSTU 301052
MTRPPG
METAR NSTU 301051Z 11015KT 10SM SCT023 BKN110 26/22 A2985 RMK SLP110
T02580215 402820255=




000
SAZS31 NSTU 300951
MTRPPG
METAR NSTU 300950Z 11016KT 10SM SCT020 BKN034 26/21 A2985 RMK SLP108
T02580214=




000
SAZS31 NSTU 300853
MTRPPG
METAR NSTU 300850Z 11016KT 10SM SCT020 BKN034 26/21 A2986 RMK SLP112
8/800 T02580214 53014=




000
SAZS31 NSTU 300752
MTRPPG
METAR NSTU 300750Z 11019KT 10SM SCT020 BKN036 26/21 A2984 RMK SLP107
T02580213=




000
SAZS31 NSTU 300752
MTRPPG
METAR NSTU 300750Z 11019KT 10SM SCT020 BKN036 26/21 A2984 RMK SLP107
T02580213=




000
SAZS31 NSTU 300655
MTRPPG
METAR NSTU 300651Z 12017KT 10SM SCT022 BKN038 26/21 A2983 RMK SLP103
T02600213=





000
SAZS31 NSTU 300554
MTRPPG
METAR NSTU 300550Z 13016KT 12SM SCT020 BKN040 26/21 A2982 RMK SLP098
8/800 T02610214 10280 20261 53003=




000
SAZS31 NSTU 300554
MTRPPG
METAR NSTU 300550Z 13016KT 12SM SCT020 BKN040 26/21 A2982 RMK SLP098
8/800 T02610214 10280 20261 53003=




000
SAZS31 NSTU 300457
MTRPPG
METAR NSTU 300456Z 12016KT 12SM SCT020 BKN040 OVC100 26/22 A2981 RMK
SLP095 T02630215=





000
SAZS31 NSTU 300357
MTRPPG
METAR NSTU 300353Z 14016KT 12SM SCT020 BKN040 OVC120 27/22 A2980 RMK
SLP091 T02650215=




000
SAZS31 NSTU 300253
MTRPPG
METAR NSTU 300250Z 13016KT 12SM SCT020 BKN040 OVC120 27/22 A2981 RMK
SLP095 8/82/ T02680218 56010=




000
SAZS31 NSTU 300154
MTRPPG
METAR NSTU 300152Z 12013KT 12SM SCT023 BKN040 OVC120 27/22 A2981 RMK
SLP095 T02710219=




000
SAZS31 NSTU 300054
MTRPPG
METAR NSTU 300051Z 12014KT 12SM SCT025 BKN040 BKN120 OVC180 27/22
A2982 RMK SLP100 T02730216=




000
SAZS31 NSTU 292355
MTRPPG
METAR NSTU 292350Z 13014KT 12SM FEW023 SCT040 BKN100 BKN150 28/22
A2984 RMK SLP105 8/870 T02800221 10282 20260 57014=




000
SAZS31 NSTU 292251
MTRPPG
METAR NSTU 292250Z 13014KT 12SM SCT025 BKN045 BKN100 OVC150 28/22
A2986 RMK SLP112 T02790222=




000
SAZS31 NSTU 292251
MTRPPG
METAR NSTU 292250Z 13014KT 12SM SCT025 BKN045 BKN100 OVC150 28/22
A2986 RMK SLP112 T02790222=




000
SAZS31 NSTU 292152
MTRPPG
METAR NSTU 292150Z 12015KT 12SM FEW025 BKN045 BKN100 28/23 A2987 RMK
SLP115 T02810227=




000
SAZS31 NSTU 292057
MTRPPG
METAR NSTU 292053Z 12015KT 12SM SCT023 BKN040 BKN120 28/22 A2988 RMK
SLP119 8/840 T02820222 52010=




000
SAZS31 NSTU 291955
MTRPPG
METAR NSTU 291953Z 14014KT 12SM FEW025 SCT040 BKN120 27/22 A2987 RMK
SLP117 T02650219=




000
SAZS31 NSTU 291955
MTRPPG
METAR NSTU 291953Z 14014KT 12SM FEW025 SCT040 BKN120 27/22 A2987 RMK
SLP117 T02650219=




000
SAZS31 NSTU 291855
MTRPPG
METAR NSTU 291853Z 13016KT 12SM SCT020 BKN045 BKN100 26/22 A2986 RMK
SLP110 T02610215=




000
SAZS31 NSTU 291753
MTRPPG
METAR NSTU 291750Z 13016KT 12SM SCT022 BKN045 BKN100 26/22 A2985 RMK
SLP108 8/870 T02600217 10260 20255 55000=




000
SAZS31 NSTU 291652
MTRPPG
METAR NSTU 291650Z 14014KT 10SM SCT022 BKN100 26/21 A2984 RMK SLP107
T02550211=




000
SAZS31 NSTU 291552
MTRPPG
METAR NSTU 291550Z 13014KT 10SM SCT023 26/21 A2984 RMK SLP105
T02580210=




000
SAZS31 NSTU 291453
MTRPPG
METAR NSTU 291450Z 13013KT 10SM SCT023 26/21 A2985 RMK SLP108 8/100
T02560214 56012=




000
SAZS31 NSTU 291453
MTRPPG
METAR NSTU 291450Z 13013KT 10SM SCT023 26/21 A2985 RMK SLP108 8/100
T02560214 56012=




000
SAZS31 NSTU 291358
MTRPPG
METAR NSTU 291356Z 12010KT 10SM SCT023 26/22 A2986 RMK SLP112
T02550215=




000
SAZS31 NSTU 291254
MTRPPG
METAR NSTU 291252Z 13011KT 10SM SCT023 26/22 A2987 RMK SLP115
T02590215=




000
SAZS31 NSTU 291254
MTRPPG
METAR NSTU 291252Z 13011KT 10SM SCT023 26/22 A2987 RMK SLP115
T02590215=




000
SAZS31 NSTU 291152
MTRPPG
METAR NSTU 291150Z 12009KT 10SM SCT023 26/21 A2988 RMK SLP120 70002
8/100 T02570213 10261 20256 57005=




000
SAZS31 NSTU 291054
MTRPPG
METAR NSTU 291050Z 12010KT 10SM FEW023 26/21 A2989 RMK SLP122
T02570213 402750252=




000
SAZS31 NSTU 290952
MTRPPG
METAR NSTU 290950Z 11012KT 10SM FEW020 SCT038 BKN100 26/21 A2990 RMK
SLP125 T02560208=




000
SAZS31 NSTU 290952
MTRPPG
METAR NSTU 290950Z 11012KT 10SM FEW020 SCT038 BKN100 26/21 A2990 RMK
SLP125 T02560208=




000
SAZS31 NSTU 290853
MTRPPG
METAR NSTU 290850Z 10013KT 10SM FEW020 SCT038 BKN100 26/21 A2990 RMK
SLP125 8/870 T02560205 53012=




000
SAZS31 NSTU 290753
MTRPPG
METAR NSTU 290750Z 10012KT 10SM FEW020 SCT038 BKN100 26/20 A2989 RMK
SLP122 T02560201=




000
SAZS31 NSTU 290753
MTRPPG
METAR NSTU 290750Z 10012KT 10SM FEW020 SCT038 BKN100 26/20 A2989 RMK
SLP122 T02560201=




000
SAZS31 NSTU 290657
MTRPPG
METAR NSTU 290650Z 11012KT 10SM FEW024 SCT040 BKN090 26/20 A2988 RMK
SLP119 T02610201=




000
SAZS31 NSTU 290554
MTRPPG
METAR NSTU 290550Z 11013KT 12SM FEW024 SCT040 BKN090 26/20 A2986 RMK
SLP113 8/870 T02610201 10273 20261 53012=




000
SAZS31 NSTU 290554
MTRPPG
METAR NSTU 290550Z 11013KT 12SM FEW024 SCT040 BKN090 26/20 A2986 RMK
SLP113 8/870 T02610201 10273 20261 53012=




000
SAZS31 NSTU 290523
MTRPPG
METAR NSTU 290450Z 10014KT 12SM FEW024 SCT040 BKN090 26/20 A2983 RMK
SLP103 T02620200=






000
SAZS31 NSTU 290523
MTRPPG
METAR NSTU 290450Z 10014KT 12SM FEW024 SCT040 BKN090 26/20 A2983 RMK
SLP103 T02620200=






000
SAZS31 NSTU 290522
MTRPPG
METAR NSTU 290351Z 13014KT 12SM FEW020 SCT038 BKN120 27/20 A2983 RMK
SLP103 T02650201=





000
SAZS31 NSTU 290253
MTRPPG
METAR NSTU 290250Z 12015KT 12SM FEW020 SCT038 BKN120 27/20 A2983 RMK
SLP102 8/870 T02690204 56014=





000
SAZS31 NSTU 290153
MTRPPG
METAR NSTU 290150Z 11017KT 12SM FEW025 SCT040 BKN120 27/21 A2983 RMK
SLP103 T02700208=




000
SAZS31 NSTU 290054
MTRPPG
METAR NSTU 290051Z 12016KT 12SM SCT025 BKN040 BKN100 27/21 A2985 RMK
SLP110 T02730210=




000
SAZS31 NSTU 282358
MTRPPG
METAR NSTU 282351Z 11017KT 12SM SCT025 BKN040 BKN120 27/21 A2987 RMK
SLP115 8/840 T02700209 10275 20255 57025=




000
SAZS31 NSTU 282358
MTRPPG
METAR NSTU 282351Z 11017KT 12SM SCT025 BKN040 BKN120 27/21 A2987 RMK
SLP115 8/840 T02700209 10275 20255 57025=




000
SAZS31 NSTU 282252
MTRPPG
METAR NSTU 282250Z 12018KT 12SM SCT025 BKN045 BKN100 28/21 A2990 RMK
SLP125 T02750213=




000
SAZS31 NSTU 282154
MTRPPG
METAR NSTU 282151Z 11018KT 12SM FEW025 SCT045 BKN100 27/21 A2992 RMK
SLP134 T02690210=




000
SAZS31 NSTU 282154
MTRPPG
METAR NSTU 282151Z 11018KT 12SM FEW025 SCT045 BKN100 27/21 A2992 RMK
SLP134 T02690210=




000
SAZS31 NSTU 282057
MTRPPG
METAR NSTU 282050Z 12017KT 12SM SCT025 SCT045 BKN120 27/21 A2994 RMK
SLP141 8/840 T02690214 52017=




000
SAZS31 NSTU 282057
MTRPPG
METAR NSTU 282050Z 12017KT 12SM SCT025 SCT045 BKN120 27/21 A2994 RMK
SLP141 8/840 T02690214 52017=




000
SAZS31 NSTU 281959
MTRPPG
METAR NSTU 281950Z 12019KT 12SM SCT020 BKN120 26/21 A2994 RMK SLP137
T02610209=




000
SAZS31 NSTU 281959
MTRPPG
METAR NSTU 281950Z 12019KT 12SM SCT020 BKN120 26/21 A2994 RMK SLP137
T02610209=




000
SAZS31 NSTU 281853
MTRPPG
METAR NSTU 281851Z 12019KT 12SM FEW020 BKN040 BKN100 26/21 A2991 RMK
SLP129 T02570206=




000
SAZS31 NSTU 281756
MTRPPG
METAR NSTU 281752Z 12020G25KT 12SM FEW024 SCT040 BKN100 26/21 A2989
RMK SLP124 60002 8/470 T02550211 10257 20252 52002=




000
SAZS31 NSTU 281756
MTRPPG
METAR NSTU 281752Z 12020G25KT 12SM FEW024 SCT040 BKN100 26/21 A2989
RMK SLP124 60002 8/470 T02550211 10257 20252 52002=




000
SAZS31 NSTU 281704
MTRPPG
METAR NSTU 281654Z 13019KT 10SM FEW021 SCT040 BKN100 25/21 A2988 RMK
SLP119 T02530213=




000
SAZS31 NSTU 281704
MTRPPG
METAR NSTU 281654Z 13019KT 10SM FEW021 SCT040 BKN100 25/21 A2988 RMK
SLP119 T02530213=




000
SAZS31 NSTU 281700
MTRPPG
METAR NSTU 281554Z 13018KT 10SM FEW018 SCT040 BKN100 25/21 A2987 RMK
SHRAE45 SLP117 T02520212=




000
SAZS31 NSTU 281700
MTRPPG
METAR NSTU 281554Z 13018KT 10SM FEW018 SCT040 BKN100 25/21 A2987 RMK
SHRAE45 SLP117 T02520212=




000
SAZS31 NSTU 281656
MTRPPG
METAR NSTU 281456Z 11017KT 10SM -SHRA FEW018TCU BKN040 OVC080 26/22
A2989 RMK SHRAB10 TCU W-N-NE 8/21/ 57007=




000
SAZS31 NSTU 281350
MTRPPG
METAR NSTU 281350Z 11017KT 10SM FEW023 BKN040 BKN100 26/22 A2989 RMK
SLP122 T02560217=




000
SAZS31 NSTU 281350
MTRPPG
METAR NSTU 281350Z 11017KT 10SM FEW023 BKN040 BKN100 26/22 A2989 RMK
SLP122 T02560217=




000
SAZS31 NSTU 281254
MTRPPG
METAR NSTU 281252Z 12015KT 10SM FEW023 BKN040 BKN100 26/22 A2989 RMK
SLP124 T02570220=




000
SAZS31 NSTU 281254
MTRPPG
METAR NSTU 281252Z 12015KT 10SM FEW023 BKN040 BKN100 26/22 A2989 RMK
SLP124 T02570220=




000
SAZS31 NSTU 281200
MTRPPG
METAR NSTU 281155Z 10018KT 10SM FEW019 SCT040 BKN100 26/22 A2991 RMK
SLP129 70006 8/470 T02570223 10261 20253 57010=




000
SAZS31 NSTU 281200
MTRPPG
METAR NSTU 281155Z 10018KT 10SM FEW019 SCT040 BKN100 26/22 A2991 RMK
SLP129 70006 8/470 T02570223 10261 20253 57010=




000
SAZS31 NSTU 281050
MTRPPG
METAR NSTU 281050Z 13018G25KT 10SM FEW019 SCT040 BKN100 25/22 A2992
RMK SLP132 T02530223 402700248=




000
SAZS31 NSTU 281050
MTRPPG
METAR NSTU 281050Z 13018G25KT 10SM FEW019 SCT040 BKN100 25/22 A2992
RMK SLP132 T02530223 402700248=




000
SAZS31 NSTU 280951
MTRPPG
METAR NSTU 280950Z 14019G23KT 10SM SCT019TCU BKN045 BKN090 26/23
A2993 RMK TCU NW-N-NE SLP135 T02580225=





000
SAZS31 NSTU 280852
MTRPPG
METAR NSTU 280851Z 13018G23KT 10SM FEW023 SCT045 BKN090 26/22 A2994
RMK SLP139 8/870 T02590224 52014=




000
SAZS31 NSTU 280752
MTRPPG
METAR NSTU 280752Z 12020G24KT 10SM SCT023 BKN045 26/22 A2993 RMK
SLP137 T02580223=




000
SAZS31 NSTU 280752
MTRPPG
METAR NSTU 280752Z 12020G24KT 10SM SCT023 BKN045 26/22 A2993 RMK
SLP137 T02580223=




    US Dept of Commerce
    National Oceanic and Atmospheric Administration
    National Weather Service
    1325 East West Highway
    Silver Spring, MD 20910
    Page Author: NWS Internet Services Team
Disclaimer
Information Quality
Credits
Glossary
Privacy Policy
Freedom of Information Act (FOIA)
About Us
Career Opportunities